Time;durP1;ratioP1;P1;durP2;ratioP2;P2;SDS_P1;SDS_P2;PMS_P1;PMS_P2;Temp;Humidity;BMP_temperature;BMP_pressure;BME280_temperature;BME280_humidity;BME280_pressure;Samples;Min_cycle;Max_cycle;Signal;HPM_P1;HPM_P2
2024/02/07 00:00:00;;;;;;;;;;;;;;;8.05;76.62;95521.11;107156;1295;22594;-87
2024/02/07 00:03:07;;;;;;;;;;;;;;;8.08;76.64;95529.05;107166;1297;22607;-87
2024/02/07 00:06:16;;;;;;;;;;;;;;;8.08;76.93;95518.67;107047;1295;123655;-87
2024/02/07 00:09:21;;;;;;;;;;;;;;;8.08;77.13;95525.59;106977;1303;22540;-87
2024/02/07 00:13:08;;;;;;;;;;;;;;;8.07;77.12;95525.20;106840;1300;124754;-88
2024/02/07 00:15:45;;;;;;;;;;;;;;;8.07;77.08;95516.79;106766;1297;22569;-87
2024/02/07 00:18:51;;;;;;;;;;;;;;;8.07;77.29;95517.27;106845;1300;124751;-88
2024/02/07 00:21:58;;;;;;;;;;;;;;;8.07;77.52;95522.65;107009;1295;22513;-87
2024/02/07 00:25:05;;;;;;;;;;;;;;;8.06;77.45;95523.08;106785;1303;124529;-86
2024/02/07 00:28:12;;;;;;;;;;;;;;;8.05;77.44;95522.71;106892;1300;22533;-87
2024/02/07 00:31:19;;;;;;;;;;;;;;;8.05;77.60;95514.27;106601;1297;124627;-87
2024/02/07 00:34:26;;;;;;;;;;;;;;;8.04;77.15;95512.52;106993;1302;22522;-87
2024/02/07 00:37:45;;;;;;;;;;;;;;;8.05;77.27;95498.23;106790;1303;124543;-87
2024/02/07 00:40:46;;;;;;;;;;;;;;;8.05;77.12;95496.88;106888;1303;22594;-88
2024/02/07 00:43:53;;;;;;;;;;;;;;;8.05;77.35;95489.84;106845;1301;124916;-87
2024/02/07 00:47:00;;;;;;;;;;;;;;;8.03;77.60;95485.73;106885;1296;22579;-88
2024/02/07 00:50:09;;;;;;;;;;;;;;;8.02;77.65;95490.20;106700;1303;124522;-87
2024/02/07 00:53:16;;;;;;;;;;;;;;;8.01;77.37;95480.17;106927;1303;22578;-88
2024/02/07 00:56:24;;;;;;;;;;;;;;;8.00;77.58;95477.95;106707;1303;125008;-87
2024/02/07 00:59:31;;;;;;;;;;;;;;;8.00;77.66;95472.69;106862;1303;22613;-87
2024/02/07 01:02:38;;;;;;;;;;;;;;;8.00;77.67;95464.53;106915;1300;22767;-86
2024/02/07 01:05:45;;;;;;;;;;;;;;;8.01;77.35;95447.05;106889;1303;22505;-87
2024/02/07 01:08:53;;;;;;;;;;;;;;;8.01;77.33;95448.70;106775;1303;22623;-88
2024/02/07 01:12:00;;;;;;;;;;;;;;;8.02;77.78;95444.80;106855;1295;24251;-87
2024/02/07 01:15:08;;;;;;;;;;;;;;;8.00;77.72;95433.81;106871;1300;22563;-87
2024/02/07 01:18:14;;;;;;;;;;;;;;;8.00;77.54;95430.06;106920;1295;22572;-87
2024/02/07 01:21:21;;;;;;;;;;;;;;;8.01;77.72;95432.89;106912;1303;24226;-86
2024/02/07 01:24:28;;;;;;;;;;;;;;;8.01;77.37;95435.33;106778;1303;124714;-88
2024/02/07 01:27:34;;;;;;;;;;;;;;;8.01;77.53;95439.50;106851;1293;24875;-87
2024/02/07 01:30:44;;;;;;;;;;;;;;;7.98;77.49;95440.96;106754;1296;124852;-87
2024/02/07 01:33:49;;;;;;;;;;;;;;;7.98;77.27;95435.30;106659;1304;22613;-87
2024/02/07 01:36:55;;;;;;;;;;;;;;;7.98;77.51;95437.18;106890;1303;124787;-87
2024/02/07 01:40:03;;;;;;;;;;;;;;;7.97;77.45;95434.08;106804;1303;22563;-87
2024/02/07 01:43:10;;;;;;;;;;;;;;;7.97;77.47;95435.25;106762;1303;124637;-87
2024/02/07 01:46:18;;;;;;;;;;;;;;;7.95;77.69;95439.08;102887;1303;5408812;-87
2024/02/07 01:49:24;;;;;;;;;;;;;;;7.93;77.54;95450.21;106671;1303;125331;-87
2024/02/07 01:52:35;;;;;;;;;;;;;;;7.93;77.99;95444.24;106828;1303;22616;-87
2024/02/07 01:55:38;;;;;;;;;;;;;;;7.91;77.87;95440.85;106729;1303;124625;-87
2024/02/07 01:58:45;;;;;;;;;;;;;;;7.89;77.86;95446.13;106903;1303;22560;-87
2024/02/07 02:01:52;;;;;;;;;;;;;;;7.89;77.93;95434.70;106777;1297;124695;-87
2024/02/07 02:04:59;;;;;;;;;;;;;;;7.87;77.89;95428.02;106844;1303;22549;-87
2024/02/07 02:08:18;;;;;;;;;;;;;;;7.87;78.00;95428.30;106696;1303;124988;-86
2024/02/07 02:11:20;;;;;;;;;;;;;;;7.86;77.74;95425.94;106812;1303;22852;-87
2024/02/07 02:14:26;;;;;;;;;;;;;;;7.84;77.88;95417.92;106688;1303;124752;-87
2024/02/07 02:17:33;;;;;;;;;;;;;;;7.83;78.03;95421.46;106895;1303;22642;-88
2024/02/07 02:20:41;;;;;;;;;;;;;;;7.80;78.17;95424.58;106815;1302;124573;-88
2024/02/07 02:23:59;;;;;;;;;;;;;;;7.79;78.09;95419.67;106771;1303;25988;-87
2024/02/07 02:27:08;;;;;;;;;;;;;;;7.77;77.79;95416.64;106639;1297;25439;-87
2024/02/07 02:30:50;;;;;;;;;;;;;;;7.76;77.93;95398.73;106675;1294;25463;-86
2024/02/07 02:33:24;;;;;;;;;;;;;;;7.77;78.07;95406.88;106756;1303;24351;-87
2024/02/07 02:36:31;;;;;;;;;;;;;;;7.77;78.25;95399.96;106593;1296;22537;-88
2024/02/07 02:39:38;;;;;;;;;;;;;;;7.75;78.15;95394.46;106898;1303;23285;-87
2024/02/07 02:42:45;;;;;;;;;;;;;;;7.75;77.98;95390.48;106925;1302;22703;-87
2024/02/07 02:45:51;;;;;;;;;;;;;;;7.73;78.09;95392.63;106862;1302;22541;-87
2024/02/07 02:48:59;;;;;;;;;;;;;;;7.73;78.13;95371.81;106856;1301;22540;-86
2024/02/07 02:52:06;;;;;;;;;;;;;;;7.70;78.22;95365.14;106841;1303;22521;-87
2024/02/07 02:55:12;;;;;;;;;;;;;;;7.69;77.87;95367.77;106803;1303;124667;-87
2024/02/07 02:58:19;;;;;;;;;;;;;;;7.70;78.00;95359.03;106902;1302;22575;-87
2024/02/07 03:01:28;;;;;;;;;;;;;;;7.71;77.97;95354.49;106693;1303;124862;-87
2024/02/07 03:04:35;;;;;;;;;;;;;;;7.70;77.34;95342.91;106869;1303;23787;-87
2024/02/07 03:11:08;;;;;;;;;;;;;;;7.70;77.37;95322.55;106352;1307;25585;-87
2024/02/07 03:14:15;;;;;;;;;;;;;;;7.71;77.38;95318.58;106258;1307;125266;-87
2024/02/07 03:17:22;;;;;;;;;;;;;;;7.72;77.60;95314.88;106348;1307;22595;-87
2024/02/07 03:20:28;;;;;;;;;;;;;;;7.73;77.66;95315.05;106337;1307;124722;-87
2024/02/07 03:23:36;;;;;;;;;;;;;;;7.74;77.70;95317.23;106836;1303;25245;-87
2024/02/07 03:26:44;;;;;;;;;;;;;;;7.73;77.40;95320.61;106759;1303;124660;-88
2024/02/07 03:29:50;;;;;;;;;;;;;;;7.75;77.60;95319.11;106821;1303;23925;-88
2024/02/07 03:32:58;;;;;;;;;;;;;;;7.75;77.39;95305.34;106796;1303;124534;-87
2024/02/07 03:36:06;;;;;;;;;;;;;;;7.75;77.31;95301.69;106917;1301;23667;-87
2024/02/07 03:39:13;;;;;;;;;;;;;;;7.77;77.30;95304.77;106768;1303;124577;-87
2024/02/07 03:42:21;;;;;;;;;;;;;;;7.79;77.41;95290.40;106884;1303;23403;-88
2024/02/07 03:45:30;;;;;;;;;;;;;;;7.77;77.38;95290.80;106875;1303;22558;-87
2024/02/07 03:48:36;;;;;;;;;;;;;;;7.76;77.56;95285.38;106800;1303;25425;-87
2024/02/07 03:51:41;;;;;;;;;;;;;;;7.74;77.41;95289.00;106868;1303;22522;-88
2024/02/07 03:55:12;;;;;;;;;;;;;;;7.73;77.39;95293.00;106886;1303;22564;-88
2024/02/07 03:57:56;;;;;;;;;;;;;;;7.72;77.47;95291.80;106812;1303;22565;-87
2024/02/07 04:01:03;;;;;;;;;;;;;;;7.70;77.46;95286.63;106868;1297;24214;-87
2024/02/07 04:04:10;;;;;;;;;;;;;;;7.70;77.83;95276.20;106788;1303;22595;-87
2024/02/07 04:07:17;;;;;;;;;;;;;;;7.68;77.55;95276.59;106904;1295;22571;-87
2024/02/07 04:10:24;;;;;;;;;;;;;;;7.69;77.53;95282.77;106882;1300;22569;-87
2024/02/07 05:17:57;;;;;;;;;;;;;;;7.51;78.47;95215.17;106750;1304;22597;-87
2024/02/07 05:21:04;;;;;;;;;;;;;;;7.50;78.31;95214.02;106660;1304;124501;-87
2024/02/07 05:24:11;;;;;;;;;;;;;;;7.49;78.38;95222.95;106750;1304;25297;-87
2024/02/07 05:27:18;;;;;;;;;;;;;;;7.49;78.32;95223.25;106635;1304;124512;-87
2024/02/07 05:30:25;;;;;;;;;;;;;;;7.51;78.45;95210.88;106738;1304;22552;-87
2024/02/07 05:33:33;;;;;;;;;;;;;;;7.49;78.27;95203.95;106683;1304;124358;-87
2024/02/07 05:36:40;;;;;;;;;;;;;;;7.47;78.53;95205.95;106825;1297;25428;-87
2024/02/07 05:39:41;;;;;;;;;;;;;;;;;;;;;
2024/02/07 05:42:49;;;;;;;;;;;;;;;7.47;78.30;95203.72;106810;1303;22556;-87
2024/02/07 05:45:56;;;;;;;;;;;;;;;7.47;78.30;95222.34;106709;1304;22599;-87
2024/02/07 05:49:04;;;;;;;;;;;;;;;7.48;78.18;95209.63;106796;1297;22533;-87
2024/02/07 05:52:10;;;;;;;;;;;;;;;7.49;77.99;95194.25;106886;1298;23813;-87
2024/02/07 05:55:17;;;;;;;;;;;;;;;7.48;78.44;95194.64;106806;1297;22517;-87
2024/02/07 05:58:26;;;;;;;;;;;;;;;7.47;78.22;95177.70;106877;1303;22581;-87
2024/02/07 06:01:33;;;;;;;;;;;;;;;7.46;78.64;95184.08;106763;1303;124964;-88
2024/02/07 06:04:40;;;;;;;;;;;;;;;7.46;78.09;95188.52;106816;1303;22576;-87
2024/02/07 06:07:48;;;;;;;;;;;;;;;7.47;78.06;95182.02;106758;1303;124881;-87
2024/02/07 06:10:56;;;;;;;;;;;;;;;7.48;78.10;95183.98;106827;1296;22457;-87
2024/02/07 06:14:04;;;;;;;;;;;;;;;7.49;77.87;95181.77;106736;1303;125050;-87
2024/02/07 06:17:09;;;;;;;;;;;;;;;7.50;78.07;95181.09;106861;1302;22651;-87
2024/02/07 06:20:16;;;;;;;;;;;;;;;7.50;78.15;95174.54;106804;1303;124669;-87
2024/02/07 06:23:24;;;;;;;;;;;;;;;7.51;78.07;95180.19;106862;1303;22699;-87
2024/02/07 06:26:30;;;;;;;;;;;;;;;7.53;77.70;95167.31;106717;1303;124983;-87
2024/02/07 06:29:38;;;;;;;;;;;;;;;7.53;77.74;95163.14;106844;1302;22574;-87
2024/02/07 06:32:44;;;;;;;;;;;;;;;7.57;77.76;95165.45;106844;1302;124517;-87
2024/02/07 06:35:52;;;;;;;;;;;;;;;7.60;77.53;95172.14;106755;1297;23371;-87
2024/02/07 06:38:59;;;;;;;;;;;;;;;7.61;77.74;95172.81;106765;1297;124934;-87
2024/02/07 06:42:06;;;;;;;;;;;;;;;7.63;77.57;95172.27;106861;1296;22711;-87
2024/02/07 06:45:12;;;;;;;;;;;;;;;7.64;77.43;95169.90;106744;1300;124605;-87
2024/02/07 06:48:20;;;;;;;;;;;;;;;7.66;77.33;95168.00;106842;1297;22654;-87
2024/02/07 06:51:27;;;;;;;;;;;;;;;7.68;76.96;95159.38;106751;1303;124481;-87
2024/02/07 06:54:34;;;;;;;;;;;;;;;7.71;77.29;95159.98;106948;1299;22565;-86
2024/02/07 06:57:41;;;;;;;;;;;;;;;7.73;77.07;95159.91;106779;1299;124574;-87
2024/02/07 07:00:48;;;;;;;;;;;;;;;7.76;77.17;95165.44;106876;1300;24298;-87
2024/02/07 07:04:07;;;;;;;;;;;;;;;7.79;77.13;95156.73;106820;1302;22550;-87
2024/02/07 07:07:08;;;;;;;;;;;;;;;7.81;77.29;95162.58;106636;1302;25280;-88
2024/02/07 07:10:15;;;;;;;;;;;;;;;7.82;77.32;95150.32;106597;1303;22618;-88
2024/02/07 07:13:22;;;;;;;;;;;;;;;7.83;77.01;95140.26;106856;1303;22547;-87
2024/02/07 07:16:29;;;;;;;;;;;;;;;7.87;76.71;95127.61;106880;1300;22575;-87
2024/02/07 07:19:36;;;;;;;;;;;;;;;7.91;77.03;95136.84;106809;1303;22529;-87
2024/02/07 07:22:43;;;;;;;;;;;;;;;7.93;76.99;95135.34;106853;1303;22590;-87
2024/02/07 07:25:50;;;;;;;;;;;;;;;7.95;77.13;95144.09;106755;1297;124825;-87
2024/02/07 07:32:08;;;;;;;;;;;;;;;;;;;;;
2024/02/07 07:35:16;;;;;;;;;;;;;;;8.05;76.65;95153.63;106793;1303;22533;-88
2024/02/07 07:38:23;;;;;;;;;;;;;;;8.07;76.91;95156.82;106749;1303;124221;-87
2024/02/07 07:41:30;;;;;;;;;;;;;;;8.09;76.55;95145.87;106857;1300;22646;-87
2024/02/07 07:44:38;;;;;;;;;;;;;;;8.14;76.37;95146.10;106764;1301;124173;-86
2024/02/07 07:47:44;;;;;;;;;;;;;;;8.17;76.82;95156.38;106856;1303;22495;-87
2024/02/07 07:50:53;;;;;;;;;;;;;;;8.21;76.19;95150.72;106779;1303;124548;-87
2024/02/07 07:53:59;;;;;;;;;;;;;;;8.25;76.35;95166.30;106839;1303;22564;-87
2024/02/07 07:57:05;;;;;;;;;;;;;;;8.27;76.68;95162.19;106744;1303;124040;-88
2024/02/07 08:00:12;;;;;;;;;;;;;;;8.28;76.83;95160.63;106825;1303;24957;-87
2024/02/07 08:03:19;;;;;;;;;;;;;;;8.35;75.79;95165.70;106688;1295;123970;-87
2024/02/07 08:06:27;;;;;;;;;;;;;;;8.41;75.72;95158.06;106782;1303;22596;-87
2024/02/07 08:09:55;;;;;;;;;;;;;;;8.47;75.98;95157.13;106761;1303;124960;-87
2024/02/07 08:12:43;;;;;;;;;;;;;;;8.51;75.70;95166.41;106660;1301;22540;-87
2024/02/07 08:15:50;;;;;;;;;;;;;;;8.55;76.08;95156.08;106814;1297;124434;-87
2024/02/07 08:18:57;;;;;;;;;;;;;;;8.57;75.82;95143.22;106862;1303;22551;-87
2024/02/07 08:22:04;;;;;;;;;;;;;;;8.59;76.05;95139.94;106786;1300;124017;-87
2024/02/07 08:25:11;;;;;;;;;;;;;;;8.62;76.22;95144.94;106839;1297;22544;-87
2024/02/07 08:28:18;;;;;;;;;;;;;;;8.65;75.79;95148.37;106845;1303;22576;-86
2024/02/07 08:31:25;;;;;;;;;;;;;;;8.66;75.94;95137.38;106886;1297;22708;-87
2024/02/07 08:34:33;;;;;;;;;;;;;;;8.67;75.75;95150.27;106883;1295;22580;-87
2024/02/07 08:37:39;;;;;;;;;;;;;;;8.67;75.80;95146.02;106842;1296;22544;-87
2024/02/07 08:40:45;;;;;;;;;;;;;;;8.66;75.57;95141.79;106845;1303;22540;-86
2024/02/07 08:43:53;;;;;;;;;;;;;;;8.65;75.71;95134.38;106855;1303;24895;-88
2024/02/07 08:47:00;;;;;;;;;;;;;;;8.63;76.01;95134.59;106826;1303;22593;-87
2024/02/07 08:53:18;;;;;;;;;;;;;;;8.62;76.39;95134.89;107011;1299;23785;-87
2024/02/07 08:56:25;;;;;;;;;;;;;;;8.63;76.15;95148.58;106792;1298;124165;-87
2024/02/07 08:59:33;;;;;;;;;;;;;;;8.65;76.32;95128.13;106866;1303;22655;-87
2024/02/07 09:02:39;;;;;;;;;;;;;;;8.67;77.11;95142.95;106791;1303;124844;-87
2024/02/07 09:05:46;;;;;;;;;;;;;;;8.64;78.11;95133.15;106658;1304;24043;-87
2024/02/07 09:08:53;;;;;;;;;;;;;;;8.56;78.92;95116.45;106768;1303;122992;-87
2024/02/07 09:12:00;;;;;;;;;;;;;;;8.48;80.00;95129.52;106900;1298;25320;-86
2024/02/07 09:15:07;;;;;;;;;;;;;;;8.41;81.31;95140.09;106524;1296;124741;-88
2024/02/07 09:18:14;;;;;;;;;;;;;;;8.31;83.21;95139.23;106861;1298;22911;-87
2024/02/07 09:21:21;;;;;;;;;;;;;;;8.21;83.68;95118.12;106777;1300;124665;-87
2024/02/07 09:24:28;;;;;;;;;;;;;;;8.13;85.36;95113.56;106855;1296;24327;-86
2024/02/07 09:27:35;;;;;;;;;;;;;;;8.03;86.18;95127.89;106723;1303;124190;-87
2024/02/07 09:30:41;;;;;;;;;;;;;;;7.96;85.96;95129.05;106863;1303;22542;-86
2024/02/07 09:33:49;;;;;;;;;;;;;;;7.92;87.03;95127.34;106861;1303;124643;-87
2024/02/07 09:36:56;;;;;;;;;;;;;;;7.90;87.79;95124.75;106819;1304;22543;-86
2024/02/07 09:40:03;;;;;;;;;;;;;;;7.91;88.05;95124.30;106791;1303;125309;-88
2024/02/07 09:43:09;;;;;;;;;;;;;;;7.94;87.74;95123.91;106840;1297;22611;-87
2024/02/07 09:46:16;;;;;;;;;;;;;;;7.97;88.01;95121.42;106743;1294;124722;-87
2024/02/07 09:49:24;;;;;;;;;;;;;;;7.99;87.99;95113.84;106815;1303;22878;-86
2024/02/07 09:52:30;;;;;;;;;;;;;;;8.01;87.45;95125.06;106895;1296;23325;-87
2024/02/07 09:55:37;;;;;;;;;;;;;;;8.00;87.95;95093.14;106881;1302;22571;-86
2024/02/07 09:58:45;;;;;;;;;;;;;;;7.97;88.51;95086.39;106881;1302;25969;-86
2024/02/07 10:02:13;;;;;;;;;;;;;;;7.94;88.62;95106.92;106814;1303;22539;-87
2024/02/07 10:05:04;;;;;;;;;;;;;;;7.93;88.87;95101.04;106802;1298;22698;-88
2024/02/07 10:08:23;;;;;;;;;;;;;;;7.89;89.09;95098.25;106672;1303;22537;-87
2024/02/07 10:11:26;;;;;;;;;;;;;;;7.88;89.39;95088.58;106587;1302;22602;-87
2024/02/07 10:14:31;;;;;;;;;;;;;;;7.88;89.06;95093.91;106781;1303;124932;-88
2024/02/07 10:17:38;;;;;;;;;;;;;;;7.89;89.31;95080.50;106904;1302;22680;-87
2024/02/07 10:20:48;;;;;;;;;;;;;;;7.90;88.55;95082.85;106739;1296;124811;-87
2024/02/07 10:23:55;;;;;;;;;;;;;;;7.94;88.66;95084.08;106648;1302;22565;-87
2024/02/07 10:27:05;;;;;;;;;;;;;;;7.94;89.19;95065.41;106742;1303;124701;-87
2024/02/07 10:30:12;;;;;;;;;;;;;;;7.96;88.35;95069.40;106643;1297;22523;-87
2024/02/07 10:33:19;;;;;;;;;;;;;;;8.01;88.22;95060.39;106725;1300;124536;-87
2024/02/07 10:36:26;;;;;;;;;;;;;;;8.06;87.74;95063.65;106785;1296;22843;-87
2024/02/07 10:39:42;;;;;;;;;;;;;;;;;;;;;
2024/02/07 10:42:51;;;;;;;;;;;;;;;8.13;86.63;95049.67;106647;1302;22582;-87
2024/02/07 10:45:58;;;;;;;;;;;;;;;8.17;87.47;95049.17;106803;1303;124725;-87
2024/02/07 10:49:05;;;;;;;;;;;;;;;8.21;88.23;95053.83;106588;1302;22572;-87
2024/02/07 10:52:13;;;;;;;;;;;;;;;8.21;87.32;95076.88;106901;1303;125332;-87
2024/02/07 10:55:21;;;;;;;;;;;;;;;8.23;87.51;95043.08;106878;1295;25952;-87
2024/02/07 10:58:27;;;;;;;;;;;;;;;8.25;87.07;95056.05;106754;1303;125167;-87
2024/02/07 11:01:33;;;;;;;;;;;;;;;8.28;86.53;95043.15;106863;1297;22564;-87
2024/02/07 11:04:40;;;;;;;;;;;;;;;8.36;86.21;95054.45;106735;1303;124956;-87
2024/02/07 11:07:47;;;;;;;;;;;;;;;8.41;85.45;95056.48;106813;1303;25407;-87
2024/02/07 11:11:04;;;;;;;;;;;;;;;;;;;;;
2024/02/07 11:14:01;;;;;;;;;;;;;;;8.45;85.43;95061.54;106765;1300;22549;-87
2024/02/07 11:17:09;;;;;;;;;;;;;;;8.48;85.31;95055.61;106789;1296;25456;-87
2024/02/07 11:20:15;;;;;;;;;;;;;;;8.53;85.17;95048.02;106819;1297;22527;-87
2024/02/07 11:23:30;;;;;;;;;;;;;;;8.57;85.20;95047.55;106892;1295;22561;-87
2024/02/07 11:26:37;;;;;;;;;;;;;;;8.63;85.94;95038.14;106717;1297;22536;-87
2024/02/07 11:30:07;;;;;;;;;;;;;;;8.67;86.08;95031.44;106910;1296;22676;-87
2024/02/07 11:32:54;;;;;;;;;;;;;;;8.73;85.74;95035.95;106765;1297;125154;-87
2024/02/07 11:36:01;;;;;;;;;;;;;;;8.80;84.51;95036.39;106892;1302;23124;-87
2024/02/07 11:39:08;;;;;;;;;;;;;;;8.84;84.56;95025.34;106788;1303;124510;-88
2024/02/07 11:42:14;;;;;;;;;;;;;;;8.87;84.98;95025.33;106877;1303;24270;-86
2024/02/07 11:45:34;;;;;;;;;;;;;;;8.89;84.26;95034.36;106805;1303;124801;-86
2024/02/07 11:48:45;;;;;;;;;;;;;;;8.90;83.13;95028.45;106575;1303;22752;-87
2024/02/07 11:52:04;;;;;;;;;;;;;;;8.91;83.04;95037.50;106797;1297;124657;-87
2024/02/07 11:55:06;;;;;;;;;;;;;;;8.89;83.16;95039.46;106859;1303;22566;-87
2024/02/07 11:58:12;;;;;;;;;;;;;;;8.88;83.24;95042.58;106792;1303;123998;-87
2024/02/07 12:01:19;;;;;;;;;;;;;;;8.87;82.41;95029.87;106823;1303;22580;-87
2024/02/07 12:04:26;;;;;;;;;;;;;;;8.86;82.43;95031.91;106744;1303;124854;-87
2024/02/07 12:07:35;;;;;;;;;;;;;;;8.87;82.44;95036.37;106701;1303;22545;-87
2024/02/07 12:10:40;;;;;;;;;;;;;;;8.88;81.95;95020.73;106857;1298;124464;-87
2024/02/07 12:14:08;;;;;;;;;;;;;;;8.90;81.83;95013.44;106869;1303;22552;-86
2024/02/07 12:16:56;;;;;;;;;;;;;;;8.90;81.68;95017.27;106595;1303;123524;-87
2024/02/07 12:20:03;;;;;;;;;;;;;;;8.89;81.36;95010.10;106883;1303;22548;-87
2024/02/07 12:23:10;;;;;;;;;;;;;;;8.89;81.31;95010.77;106887;1302;22634;-87
2024/02/07 12:26:18;;;;;;;;;;;;;;;8.90;81.70;95007.23;106901;1302;22635;-87
2024/02/07 12:29:25;;;;;;;;;;;;;;;8.91;81.68;95004.67;106648;1303;22707;-87
2024/02/07 12:32:31;;;;;;;;;;;;;;;8.91;81.64;95016.89;106890;1298;22561;-87
2024/02/07 12:35:38;;;;;;;;;;;;;;;8.91;82.16;94995.73;106845;1303;22670;-87
2024/02/07 12:38:46;;;;;;;;;;;;;;;8.91;81.79;95007.38;106702;1303;22779;-87
2024/02/07 12:41:52;;;;;;;;;;;;;;;8.91;81.74;94993.38;106882;1302;22533;-87
2024/02/07 12:44:59;;;;;;;;;;;;;;;8.93;81.27;94985.41;106884;1303;22570;-87
2024/02/07 12:48:06;;;;;;;;;;;;;;;8.96;81.58;94996.58;106897;1300;22583;-87
2024/02/07 12:51:14;;;;;;;;;;;;;;;8.99;81.75;94991.54;106782;1303;125053;-87
2024/02/07 12:54:21;;;;;;;;;;;;;;;9.01;81.88;94988.50;106895;1303;24030;-86
2024/02/07 12:57:34;;;;;;;;;;;;;;;9.01;81.45;94986.35;106874;1294;124933;-87
2024/02/07 13:00:41;;;;;;;;;;;;;;;9.02;81.38;94979.88;106756;1302;24257;-87
2024/02/07 13:03:48;;;;;;;;;;;;;;;9.04;81.42;94986.05;106814;1303;124900;-87
2024/02/07 13:06:55;;;;;;;;;;;;;;;9.06;81.39;95000.52;106894;1303;22710;-87
2024/02/07 13:10:02;;;;;;;;;;;;;;;9.05;80.50;95001.75;106808;1296;124788;-88
2024/02/07 13:13:09;;;;;;;;;;;;;;;9.03;81.25;95001.96;106881;1296;22581;-87
2024/02/07 13:16:16;;;;;;;;;;;;;;;9.02;81.39;95005.83;106780;1286;124738;-87
2024/02/07 13:19:23;;;;;;;;;;;;;;;9.01;81.48;94993.64;106863;1303;25038;-87
2024/02/07 13:22:30;;;;;;;;;;;;;;;9.01;81.53;95002.69;106760;1303;124716;-87
2024/02/07 13:25:37;;;;;;;;;;;;;;;9.01;81.74;95002.60;106915;1299;22578;-87
2024/02/07 13:28:44;;;;;;;;;;;;;;;9.02;82.20;95004.96;106830;1294;125219;-87
2024/02/07 13:31:51;;;;;;;;;;;;;;;9.01;81.99;95011.98;107000;1303;22560;-88
2024/02/07 13:34:58;;;;;;;;;;;;;;;8.98;81.54;95011.47;106807;1303;124744;-87
2024/02/07 13:38:03;;;;;;;;;;;;;;;;;;;;;
2024/02/07 13:41:11;;;;;;;;;;;;;;;8.92;82.07;95011.83;106817;1303;125219;-87
2024/02/07 13:44:17;;;;;;;;;;;;;;;8.91;82.66;95006.86;106923;1302;22530;-87
2024/02/07 13:47:26;;;;;;;;;;;;;;;8.92;82.37;95007.69;102843;1302;125204;-87
2024/02/07 13:50:33;;;;;;;;;;;;;;;8.92;81.50;95000.84;106913;1303;25426;-87
2024/02/07 13:53:41;;;;;;;;;;;;;;;8.93;81.59;95005.17;106892;1295;22539;-88
2024/02/07 13:56:48;;;;;;;;;;;;;;;8.94;81.92;95008.45;106917;1303;23040;-88
2024/02/07 13:59:55;;;;;;;;;;;;;;;8.93;81.89;94998.00;106866;1303;22650;-87
2024/02/07 14:03:02;;;;;;;;;;;;;;;8.93;81.31;95003.11;106907;1303;22537;-88
2024/02/07 14:06:10;;;;;;;;;;;;;;;8.92;81.53;95002.59;106890;1296;25420;-88
2024/02/07 14:09:18;;;;;;;;;;;;;;;8.93;81.45;95004.41;106888;1303;25425;-87
2024/02/07 14:12:24;;;;;;;;;;;;;;;8.92;81.84;95017.85;106898;1303;25362;-87
2024/02/07 14:15:31;;;;;;;;;;;;;;;8.92;81.79;95010.29;106804;1297;124788;-88
2024/02/07 14:18:38;;;;;;;;;;;;;;;8.91;81.63;95011.80;106924;1303;22572;-87
2024/02/07 14:21:45;;;;;;;;;;;;;;;8.90;82.07;95006.70;106847;1302;125158;-87
2024/02/07 14:24:52;;;;;;;;;;;;;;;8.89;82.53;95008.27;106933;1296;22678;-87
2024/02/07 14:27:59;;;;;;;;;;;;;;;8.86;82.65;94996.20;106781;1296;124717;-87
2024/02/07 14:31:06;;;;;;;;;;;;;;;8.84;82.88;95002.79;106915;1303;25333;-87
2024/02/07 14:34:13;;;;;;;;;;;;;;;8.81;83.21;95004.11;106835;1303;124829;-87
2024/02/07 14:37:21;;;;;;;;;;;;;;;8.79;83.24;95001.89;106894;1296;22556;-87
2024/02/07 14:40:28;;;;;;;;;;;;;;;8.77;83.25;95002.07;106833;1303;125947;-86
2024/02/07 14:43:34;;;;;;;;;;;;;;;8.74;83.38;95004.04;106828;1301;22535;-88
2024/02/07 14:46:41;;;;;;;;;;;;;;;8.72;83.37;95004.96;106861;1303;124649;-88
2024/02/07 14:49:50;;;;;;;;;;;;;;;8.70;83.50;95010.19;107034;1296;22730;-87
2024/02/07 14:52:57;;;;;;;;;;;;;;;8.70;83.29;95008.84;106856;1296;124791;-87
2024/02/07 14:56:04;;;;;;;;;;;;;;;8.71;83.51;95012.78;106925;1295;22561;-87
2024/02/07 14:59:11;;;;;;;;;;;;;;;8.68;83.52;95011.88;106811;1297;124575;-87
2024/02/07 15:02:18;;;;;;;;;;;;;;;8.67;83.57;95007.17;106854;1296;22510;-86
2024/02/07 15:05:26;;;;;;;;;;;;;;;8.67;83.64;95014.84;106806;1296;125001;-87
2024/02/07 15:08:33;;;;;;;;;;;;;;;8.68;83.65;95020.05;106942;1302;22922;-88
2024/02/07 15:11:40;;;;;;;;;;;;;;;8.67;83.57;95018.89;106878;1303;124700;-87
2024/02/07 15:14:47;;;;;;;;;;;;;;;8.69;83.28;95021.15;106883;1303;22523;-87
2024/02/07 15:17:54;;;;;;;;;;;;;;;8.68;83.64;95031.88;106904;1303;23896;-87
2024/02/07 15:21:01;;;;;;;;;;;;;;;8.68;83.92;95059.45;106913;1297;22561;-87
2024/02/07 15:24:02;;;;;;;;;;;;;;;8.57;85.73;95080.73;106903;1297;22569;-87
2024/02/07 15:27:11;;;;;;;;;;;;;;;8.23;87.22;95084.64;106903;1300;22532;-87
2024/02/07 15:30:18;;;;;;;;;;;;;;;7.77;87.82;95100.41;106879;1303;22707;-87
2024/02/07 15:33:30;;;;;;;;;;;;;;;7.40;88.42;95112.48;106929;1303;22573;-87
2024/02/07 15:36:32;;;;;;;;;;;;;;;7.07;88.91;95118.97;106904;1299;22554;-87
2024/02/07 15:39:39;;;;;;;;;;;;;;;6.78;89.12;95120.38;106867;1303;22581;-87
2024/02/07 15:42:46;;;;;;;;;;;;;;;6.60;89.92;95125.78;106857;1302;22568;-87
2024/02/07 15:45:53;;;;;;;;;;;;;;;6.42;90.76;95131.52;106766;1300;124898;-86
2024/02/07 15:49:00;;;;;;;;;;;;;;;6.23;91.43;95131.71;106894;1293;22655;-87
2024/02/07 15:52:08;;;;;;;;;;;;;;;6.17;91.87;95123.71;106790;1303;125103;-87
2024/02/07 15:55:15;;;;;;;;;;;;;;;6.12;92.18;95132.59;106813;1303;25969;-87
2024/02/07 15:58:22;;;;;;;;;;;;;;;5.99;92.01;95129.58;106766;1303;124799;-87
2024/02/07 16:01:29;;;;;;;;;;;;;;;5.82;92.36;95139.61;106859;1303;22575;-87
2024/02/07 16:04:36;;;;;;;;;;;;;;;5.70;93.06;95134.65;106764;1303;125281;-87
2024/02/07 16:07:55;;;;;;;;;;;;;;;5.62;93.63;95144.54;106862;1300;22529;-87
2024/02/07 16:10:55;;;;;;;;;;;;;;;5.58;93.99;95156.91;106785;1303;124600;-87
2024/02/07 16:14:02;;;;;;;;;;;;;;;5.53;94.56;95161.02;106879;1299;22519;-87
2024/02/07 16:20:29;;;;;;;;;;;;;;;5.32;94.25;95182.73;106625;1300;22567;-87
2024/02/07 16:23:36;;;;;;;;;;;;;;;5.27;94.68;95184.55;106677;1298;124655;-87
2024/02/07 16:26:41;;;;;;;;;;;;;;;;;;;;;
2024/02/07 16:29:49;;;;;;;;;;;;;;;5.14;95.10;95182.29;106786;1297;124546;-87
2024/02/07 16:32:58;;;;;;;;;;;;;;;5.06;95.40;95194.48;106903;1302;22616;-86
2024/02/07 16:36:05;;;;;;;;;;;;;;;4.95;96.14;95211.73;106740;1296;124537;-87
2024/02/07 16:39:12;;;;;;;;;;;;;;;4.88;96.52;95208.45;106873;1302;22564;-87
2024/02/07 16:42:20;;;;;;;;;;;;;;;4.75;96.71;95222.27;106858;1297;24382;-87
2024/02/07 16:45:27;;;;;;;;;;;;;;;4.68;97.16;95223.38;106837;1303;22523;-87
2024/02/07 16:48:34;;;;;;;;;;;;;;;4.60;97.08;95228.64;106824;1297;22630;-87
2024/02/07 16:51:42;;;;;;;;;;;;;;;4.57;97.49;95220.36;106730;1304;22587;-87
2024/02/07 16:54:59;;;;;;;;;;;;;;;;;;;;;
2024/02/07 16:57:57;;;;;;;;;;;;;;;4.37;97.17;95243.39;106664;1296;22526;-87
2024/02/07 17:01:03;;;;;;;;;;;;;;;4.27;97.31;95247.92;106664;1303;23022;-87
2024/02/07 17:04:12;;;;;;;;;;;;;;;4.19;97.55;95254.39;106655;1303;125505;-87
2024/02/07 17:07:18;;;;;;;;;;;;;;;4.09;97.85;95258.00;106673;1296;23756;-86
2024/02/07 17:10:26;;;;;;;;;;;;;;;4.03;97.80;95252.32;106633;1304;125236;-85
2024/02/07 17:13:34;;;;;;;;;;;;;;;3.99;98.12;95248.08;106755;1296;22669;-85
2024/02/07 17:16:41;;;;;;;;;;;;;;;3.96;98.39;95276.17;106741;1303;124778;-84
2024/02/07 17:19:48;;;;;;;;;;;;;;;3.86;98.50;95285.02;106786;1300;24223;-85
2024/02/07 17:23:05;;;;;;;;;;;;;;;;;;;;;
2024/02/07 17:26:08;;;;;;;;;;;;;;;3.65;98.48;95288.73;106727;1290;22564;-85
2024/02/07 17:29:15;;;;;;;;;;;;;;;3.58;98.57;95287.65;106799;1304;124766;-85
2024/02/07 17:32:22;;;;;;;;;;;;;;;3.47;98.29;95284.91;106631;1297;22531;-86
2024/02/07 17:35:29;;;;;;;;;;;;;;;3.35;98.26;95292.10;106449;1303;124669;-86
2024/02/07 17:38:36;;;;;;;;;;;;;;;3.32;98.65;95301.77;106617;1297;22656;-86